Pagrindinis puslapis
METAR-TAF:

METAR-TAF

Oro uostai :

Radom-Sadków

Radomas, Lenkija

platuma: 51-23-21N, ilguma: 21-12-49E, Aukštis: 186 m

Dabartinis oras

Ataskaita buvo paskelbta 20 minutes, ne 00:00 UTC
Vėjas 6 kt iš Šiaurės, svyruoja nuo Šiaurės Vakarų ir Šiaurės/Šiaurės Rytų
Temperatūra 3°C
Drėgmė 87%
Slėgis 1017 hPa
Matomumas 10 km arba daugiau
Apsiniaukę ne aukštis 2200 ft

METAR: EPRA 220000Z 35006KT 320V020 9999 OVC022 03/01 Q1017

Laikas: 02:20 (00:20 UTC)

Prognozė

Ataskaita buvo paskelbta 50 minutes, ne 23:30 UTC
Prognozė galioja nuo 22 metu 00 UTC su 22 metu 09 UTC
Vėjas 8 kt iš Šiaurės
Matomumas 10 km arba daugiau
Apsiniaukę ne aukštis 2500 ft
Laikinai
nuo 22 metu 00 UTC su 22 metu 08 UTC
Apsiniaukę ne aukštis 1400 ft

TAF: EPRA 212330Z 2200/2209 35008KT 9999 OVC025 TEMPO 2200/2208 OVC014

Orai ataskaitas ir orų prognozės (METAR, TAF).

turimą stotys yra geltonos ir raudonos taškus žemėlapyje.

Perkelti pele per norėdami pamatyti stoties vardą.

Tada spustelėkite, norėdami matyti oro stebėjimo ir prognozės.

Norėdami pakeisti žemėlapį: spustelėkite ant žalios mygtukų su juodo kryžiaus žemyn,; žalią mygtuką su brūkšneliu, jei norite nutolinti; arba žalių rodyklių gretimoms žemėlapius.


METAR-TAF: